Terminal Aerodrome Forecast
Issued by NWS Paducah, KY

Home | Current Version | Previous Version | Text Only | Print | Product List | Glossary Off
Versions: 1 2 3 4 5 6 7 8 9 10 11 12 13 14 15 16 17 18

000
FTUS43 KPAH 261605 AAB
TAFPAH
TAF AMD
KPAH 261605Z 2616/2712 36010KT 6SM -RA SCT008 OVC015
      TEMPO 2616/2619 3SM -RA BR BKN007 OVC012
     FM261900 36012G19KT P6SM SCT012 BKN025
     FM270000 36004KT P6SM SCT025 BKN100=

USA.gov is the U.S. government's official web portal to all federal, state and local government web resources and services.